sensor_id;sensor_type;location;lat;lon;timestamp;pressure;altitude;pressure_sealevel;temperature
48003;BMP280;33768;48.578;11.574;2023-08-21T00:01:34;96991.44;;;20.61
48003;BMP280;33768;48.578;11.574;2023-08-21T00:04:38;96995.38;;;20.58
48003;BMP280;33768;48.578;11.574;2023-08-21T00:07:42;96991.56;;;20.54
48003;BMP280;33768;48.578;11.574;2023-08-21T00:10:47;96989.34;;;20.52
48003;BMP280;33768;48.578;11.574;2023-08-21T00:13:51;96989.34;;;20.52
48003;BMP280;33768;48.578;11.574;2023-08-21T00:16:55;96993.94;;;20.57
48003;BMP280;33768;48.578;11.574;2023-08-21T00:20:00;96989.72;;;20.56
48003;BMP280;33768;48.578;11.574;2023-08-21T00:23:04;96988.00;;;20.44
48003;BMP280;33768;48.578;11.574;2023-08-21T00:26:08;96982.59;;;20.37
48003;BMP280;33768;48.578;11.574;2023-08-21T00:29:12;96977.44;;;20.33
48003;BMP280;33768;48.578;11.574;2023-08-21T00:32:16;96989.28;;;20.34
48003;BMP280;33768;48.578;11.574;2023-08-21T00:35:20;96983.88;;;20.36
48003;BMP280;33768;48.578;11.574;2023-08-21T00:38:24;96980.38;;;20.35
48003;BMP280;33768;48.578;11.574;2023-08-21T00:41:28;96977.59;;;20.35
48003;BMP280;33768;48.578;11.574;2023-08-21T00:44:32;96991.78;;;20.39
48003;BMP280;33768;48.578;11.574;2023-08-21T00:47:37;96980.53;;;20.37
48003;BMP280;33768;48.578;11.574;2023-08-21T00:50:41;96991.28;;;20.24
48003;BMP280;33768;48.578;11.574;2023-08-21T00:53:46;96988.28;;;20.12
48003;BMP280;33768;48.578;11.574;2023-08-21T00:56:50;96982.56;;;20.10
48003;BMP280;33768;48.578;11.574;2023-08-21T00:59:55;96978.19;;;20.07
48003;BMP280;33768;48.578;11.574;2023-08-21T01:02:59;96969.09;;;19.98
48003;BMP280;33768;48.578;11.574;2023-08-21T01:06:04;96977.59;;;19.83
48003;BMP280;33768;48.578;11.574;2023-08-21T01:12:48;96979.66;;;19.66
48003;BMP280;33768;48.578;11.574;2023-08-21T01:15:55;96979.66;;;19.66
48003;BMP280;33768;48.578;11.574;2023-08-21T01:19:01;96990.31;;;19.69
48003;BMP280;33768;48.578;11.574;2023-08-21T01:22:05;96989.59;;;19.69
48003;BMP280;33768;48.578;11.574;2023-08-21T01:25:10;96987.53;;;19.69
48003;BMP280;33768;48.578;11.574;2023-08-21T01:28:14;96993.53;;;19.75
48003;BMP280;33768;48.578;11.574;2023-08-21T01:31:23;96991.53;;;19.75
48003;BMP280;33768;48.578;11.574;2023-08-21T01:34:28;96995.59;;;19.74
48003;BMP280;33768;48.578;11.574;2023-08-21T01:37:34;96995.59;;;19.74
48003;BMP280;33768;48.578;11.574;2023-08-21T01:40:38;96994.53;;;19.70
48003;BMP280;33768;48.578;11.574;2023-08-21T01:43:43;97003.69;;;19.63
48003;BMP280;33768;48.578;11.574;2023-08-21T01:46:47;96996.69;;;19.45
48003;BMP280;33768;48.578;11.574;2023-08-21T01:49:53;97000.00;;;19.27
48003;BMP280;33768;48.578;11.574;2023-08-21T01:52:57;97007.72;;;19.12
48003;BMP280;33768;48.578;11.574;2023-08-21T01:56:01;96988.66;;;18.99
48003;BMP280;33768;48.578;11.574;2023-08-21T01:59:05;96994.66;;;18.88
48003;BMP280;33768;48.578;11.574;2023-08-21T02:02:10;96998.88;;;18.89
48003;BMP280;33768;48.578;11.574;2023-08-21T02:05:14;97005.28;;;18.99
48003;BMP280;33768;48.578;11.574;2023-08-21T02:08:19;96994.53;;;19.03
48003;BMP280;33768;48.578;11.574;2023-08-21T02:11:23;97001.72;;;19.06
48003;BMP280;33768;48.578;11.574;2023-08-21T02:14:29;97007.72;;;19.12
48003;BMP280;33768;48.578;11.574;2023-08-21T02:17:33;97006.94;;;19.19
48003;BMP280;33768;48.578;11.574;2023-08-21T02:20:37;97015.78;;;19.17
48003;BMP280;33768;48.578;11.574;2023-08-21T02:23:42;97005.63;;;19.03
48003;BMP280;33768;48.578;11.574;2023-08-21T02:26:48;97008.09;;;18.92
48003;BMP280;33768;48.578;11.574;2023-08-21T02:29:52;97012.63;;;18.80
48003;BMP280;33768;48.578;11.574;2023-08-21T02:32:56;97009.50;;;18.76
48003;BMP280;33768;48.578;11.574;2023-08-21T02:36:00;97010.28;;;18.69
48003;BMP280;33768;48.578;11.574;2023-08-21T02:39:07;97007.75;;;18.64
48003;BMP280;33768;48.578;11.574;2023-08-21T02:42:12;97007.03;;;18.63
48003;BMP280;33768;48.578;11.574;2023-08-21T02:45:16;97011.19;;;18.72
48003;BMP280;33768;48.578;11.574;2023-08-21T02:48:20;97002.06;;;18.86
48003;BMP280;33768;48.578;11.574;2023-08-21T02:51:24;97010.06;;;18.99
48003;BMP280;33768;48.578;11.574;2023-08-21T02:54:28;97018.66;;;19.10
48003;BMP280;33768;48.578;11.574;2023-08-21T02:57:33;97006.59;;;19.15
48003;BMP280;33768;48.578;11.574;2023-08-21T03:00:37;97007.25;;;19.23
48003;BMP280;33768;48.578;11.574;2023-08-21T03:03:41;97015.00;;;19.24
48003;BMP280;33768;48.578;11.574;2023-08-21T03:06:45;97009.53;;;19.17
48003;BMP280;33768;48.578;11.574;2023-08-21T03:09:50;97008.56;;;19.05
48003;BMP280;33768;48.578;11.574;2023-08-21T03:12:54;97000.63;;;19.02
48003;BMP280;33768;48.578;11.574;2023-08-21T03:15:59;97007.00;;;19.12
48003;BMP280;33768;48.578;11.574;2023-08-21T03:19:04;97000.25;;;19.22
48003;BMP280;33768;48.578;11.574;2023-08-21T03:22:09;97012.88;;;19.32
48003;BMP280;33768;48.578;11.574;2023-08-21T03:25:13;97004.19;;;19.36
48003;BMP280;33768;48.578;11.574;2023-08-21T03:28:17;97009.31;;;19.39
48003;BMP280;33768;48.578;11.574;2023-08-21T03:31:21;97003.19;;;19.41
48003;BMP280;33768;48.578;11.574;2023-08-21T03:34:26;97007.50;;;19.34
48003;BMP280;33768;48.578;11.574;2023-08-21T03:37:34;97006.44;;;19.13
48003;BMP280;33768;48.578;11.574;2023-08-21T03:40:39;97006.44;;;18.89
48003;BMP280;33768;48.578;11.574;2023-08-21T03:43:43;97007.69;;;18.71
48003;BMP280;33768;48.578;11.574;2023-08-21T03:46:47;97004.63;;;18.67
48003;BMP280;33768;48.578;11.574;2023-08-21T03:49:52;97003.56;;;18.79
48003;BMP280;33768;48.578;11.574;2023-08-21T03:52:59;97010.31;;;18.93
48003;BMP280;33768;48.578;11.574;2023-08-21T03:56:03;97003.22;;;19.00
48003;BMP280;33768;48.578;11.574;2023-08-21T03:59:07;97011.47;;;19.07
48003;BMP280;33768;48.578;11.574;2023-08-21T04:02:11;97011.06;;;19.11
48003;BMP280;33768;48.578;11.574;2023-08-21T04:05:15;97012.13;;;19.15
48003;BMP280;33768;48.578;11.574;2023-08-21T04:08:19;97010.25;;;19.17
48003;BMP280;33768;48.578;11.574;2023-08-21T04:11:23;97011.72;;;19.18
48003;BMP280;33768;48.578;11.574;2023-08-21T04:14:27;97004.88;;;19.19
48003;BMP280;33768;48.578;11.574;2023-08-21T04:17:31;97001.41;;;19.19
48003;BMP280;33768;48.578;11.574;2023-08-21T04:20:37;97002.13;;;19.19
48003;BMP280;33768;48.578;11.574;2023-08-21T04:23:41;97016.13;;;19.21
48003;BMP280;33768;48.578;11.574;2023-08-21T04:26:45;97018.16;;;19.21
48003;BMP280;33768;48.578;11.574;2023-08-21T04:29:49;97010.09;;;19.15
48003;BMP280;33768;48.578;11.574;2023-08-21T04:32:53;97008.31;;;19.11
48003;BMP280;33768;48.578;11.574;2023-08-21T04:35:58;97013.34;;;19.05
48003;BMP280;33768;48.578;11.574;2023-08-21T04:39:02;97005.53;;;19.11
48003;BMP280;33768;48.578;11.574;2023-08-21T04:42:07;97008.78;;;19.16
48003;BMP280;33768;48.578;11.574;2023-08-21T04:45:11;97017.28;;;19.18
48003;BMP280;33768;48.578;11.574;2023-08-21T04:48:16;97012.28;;;19.17
48003;BMP280;33768;48.578;11.574;2023-08-21T04:51:23;97006.38;;;19.20
48003;BMP280;33768;48.578;11.574;2023-08-21T04:54:28;97009.78;;;19.28
48003;BMP280;33768;48.578;11.574;2023-08-21T04:57:31;97011.91;;;19.37
48003;BMP280;33768;48.578;11.574;2023-08-21T05:00:36;97013.84;;;19.44
48003;BMP280;33768;48.578;11.574;2023-08-21T05:03:41;97019.75;;;19.48
48003;BMP280;33768;48.578;11.574;2023-08-21T05:06:45;97022.56;;;19.57
48003;BMP280;33768;48.578;11.574;2023-08-21T05:09:49;97006.44;;;19.80
48003;BMP280;33768;48.578;11.574;2023-08-21T05:12:57;97013.84;;;19.94
48003;BMP280;33768;48.578;11.574;2023-08-21T05:16:02;97021.56;;;19.96
48003;BMP280;33768;48.578;11.574;2023-08-21T05:19:11;97022.53;;;20.07
48003;BMP280;33768;48.578;11.574;2023-08-21T05:22:15;97024.47;;;20.14
48003;BMP280;33768;48.578;11.574;2023-08-21T05:25:19;97025.38;;;20.17
48003;BMP280;33768;48.578;11.574;2023-08-21T05:28:24;97027.13;;;20.22
48003;BMP280;33768;48.578;11.574;2023-08-21T05:31:29;97029.38;;;20.33
48003;BMP280;33768;48.578;11.574;2023-08-21T05:34:33;97029.00;;;20.45
48003;BMP280;33768;48.578;11.574;2023-08-21T05:37:37;97036.84;;;20.56
48003;BMP280;33768;48.578;11.574;2023-08-21T05:40:42;97040.38;;;20.66
48003;BMP280;33768;48.578;11.574;2023-08-21T05:43:46;97034.88;;;20.75
48003;BMP280;33768;48.578;11.574;2023-08-21T05:46:53;97034.75;;;20.83
48003;BMP280;33768;48.578;11.574;2023-08-21T05:49:58;97031.69;;;20.88
48003;BMP280;33768;48.578;11.574;2023-08-21T05:53:05;97034.06;;;20.92
48003;BMP280;33768;48.578;11.574;2023-08-21T05:56:10;97034.06;;;20.92
48003;BMP280;33768;48.578;11.574;2023-08-21T05:59:26;97033.91;;;20.90
48003;BMP280;33768;48.578;11.574;2023-08-21T06:02:31;97044.41;;;20.91
48003;BMP280;33768;48.578;11.574;2023-08-21T06:05:36;97040.34;;;20.92
48003;BMP280;33768;48.578;11.574;2023-08-21T06:08:41;97040.91;;;20.91
48003;BMP280;33768;48.578;11.574;2023-08-21T06:11:45;97042.91;;;20.81
48003;BMP280;33768;48.578;11.574;2023-08-21T06:14:49;97049.47;;;20.76
48003;BMP280;33768;48.578;11.574;2023-08-21T06:17:54;97049.06;;;20.79
48003;BMP280;33768;48.578;11.574;2023-08-21T06:20:58;97050.22;;;20.86
48003;BMP280;33768;48.578;11.574;2023-08-21T06:24:03;97046.94;;;20.97
48003;BMP280;33768;48.578;11.574;2023-08-21T06:27:07;97052.78;;;21.01
48003;BMP280;33768;48.578;11.574;2023-08-21T06:30:13;97051.19;;;21.07
48003;BMP280;33768;48.578;11.574;2023-08-21T06:33:17;97054.56;;;21.15
48003;BMP280;33768;48.578;11.574;2023-08-21T06:36:21;97053.69;;;21.22
48003;BMP280;33768;48.578;11.574;2023-08-21T06:39:25;97050.06;;;21.29
48003;BMP280;33768;48.578;11.574;2023-08-21T06:42:29;97055.66;;;21.38
48003;BMP280;33768;48.578;11.574;2023-08-21T06:45:34;97055.22;;;21.41
48003;BMP280;33768;48.578;11.574;2023-08-21T06:48:40;97059.19;;;21.48
48003;BMP280;33768;48.578;11.574;2023-08-21T06:51:47;97062.00;;;21.57
48003;BMP280;33768;48.578;11.574;2023-08-21T06:54:51;97054.38;;;21.67
48003;BMP280;33768;48.578;11.574;2023-08-21T06:57:56;97051.91;;;21.80
48003;BMP280;33768;48.578;11.574;2023-08-21T07:01:01;97060.38;;;22.01
48003;BMP280;33768;48.578;11.574;2023-08-21T07:04:05;97051.91;;;22.18
48003;BMP280;33768;48.578;11.574;2023-08-21T07:07:10;97058.63;;;22.33
48003;BMP280;33768;48.578;11.574;2023-08-21T07:10:14;97051.84;;;22.46
48003;BMP280;33768;48.578;11.574;2023-08-21T07:13:19;97050.91;;;22.62
48003;BMP280;33768;48.578;11.574;2023-08-21T07:16:23;97056.72;;;22.75
48003;BMP280;33768;48.578;11.574;2023-08-21T07:19:28;97067.53;;;22.90
48003;BMP280;33768;48.578;11.574;2023-08-21T07:22:32;97058.09;;;23.04
48003;BMP280;33768;48.578;11.574;2023-08-21T07:25:36;97061.06;;;23.27
48003;BMP280;33768;48.578;11.574;2023-08-21T07:28:40;97059.09;;;23.39
48003;BMP280;33768;48.578;11.574;2023-08-21T07:31:44;97054.59;;;23.55
48003;BMP280;33768;48.578;11.574;2023-08-21T07:34:53;97059.84;;;23.81
48003;BMP280;33768;48.578;11.574;2023-08-21T07:38:00;97063.00;;;24.07
48003;BMP280;33768;48.578;11.574;2023-08-21T07:41:06;97063.56;;;24.26
48003;BMP280;33768;48.578;11.574;2023-08-21T07:44:11;97069.81;;;24.48
48003;BMP280;33768;48.578;11.574;2023-08-21T07:47:15;97059.94;;;24.79
48003;BMP280;33768;48.578;11.574;2023-08-21T07:50:19;97066.28;;;25.02
48003;BMP280;33768;48.578;11.574;2023-08-21T07:53:24;97064.59;;;25.31
48003;BMP280;33768;48.578;11.574;2023-08-21T07:56:29;97054.72;;;25.64
48003;BMP280;33768;48.578;11.574;2023-08-21T07:59:33;97061.38;;;26.17
48003;BMP280;33768;48.578;11.574;2023-08-21T08:02:37;97060.69;;;26.79
48003;BMP280;33768;48.578;11.574;2023-08-21T08:05:41;97051.94;;;27.38
48003;BMP280;33768;48.578;11.574;2023-08-21T08:08:46;97046.91;;;27.90
48003;BMP280;33768;48.578;11.574;2023-08-21T08:11:50;97048.28;;;28.46
48003;BMP280;33768;48.578;11.574;2023-08-21T08:14:54;97053.63;;;28.99
48003;BMP280;33768;48.578;11.574;2023-08-21T08:17:58;97054.25;;;29.43
48003;BMP280;33768;48.578;11.574;2023-08-21T08:21:02;97055.25;;;29.65
48003;BMP280;33768;48.578;11.574;2023-08-21T08:24:06;97045.81;;;30.08
48003;BMP280;33768;48.578;11.574;2023-08-21T08:27:10;97042.88;;;30.39
48003;BMP280;33768;48.578;11.574;2023-08-21T08:30:15;97034.66;;;30.79
48003;BMP280;33768;48.578;11.574;2023-08-21T08:33:19;97037.59;;;31.19
48003;BMP280;33768;48.578;11.574;2023-08-21T08:36:23;97041.97;;;31.61
48003;BMP280;33768;48.578;11.574;2023-08-21T08:39:28;97036.16;;;32.38
48003;BMP280;33768;48.578;11.574;2023-08-21T08:42:34;97031.59;;;33.17
48003;BMP280;33768;48.578;11.574;2023-08-21T08:45:39;97025.47;;;34.02
48003;BMP280;33768;48.578;11.574;2023-08-21T08:48:44;97024.22;;;34.36
48003;BMP280;33768;48.578;11.574;2023-08-21T08:51:51;97017.84;;;34.98
48003;BMP280;33768;48.578;11.574;2023-08-21T08:54:57;97023.66;;;35.69
48003;BMP280;33768;48.578;11.574;2023-08-21T08:58:01;97019.28;;;36.03
48003;BMP280;33768;48.578;11.574;2023-08-21T09:01:05;97021.28;;;35.95
48003;BMP280;33768;48.578;11.574;2023-08-21T09:04:10;97017.94;;;36.06
48003;BMP280;33768;48.578;11.574;2023-08-21T09:07:17;97020.31;;;36.20
48003;BMP280;33768;48.578;11.574;2023-08-21T09:10:25;97015.13;;;36.49
48003;BMP280;33768;48.578;11.574;2023-08-21T09:13:30;97004.81;;;37.24
48003;BMP280;33768;48.578;11.574;2023-08-21T09:16:34;97006.91;;;37.78
48003;BMP280;33768;48.578;11.574;2023-08-21T09:19:39;97007.09;;;37.96
48003;BMP280;33768;48.578;11.574;2023-08-21T09:22:52;97001.50;;;38.06
48003;BMP280;33768;48.578;11.574;2023-08-21T09:25:57;97007.56;;;38.49
48003;BMP280;33768;48.578;11.574;2023-08-21T09:29:03;97008.53;;;38.85
48003;BMP280;33768;48.578;11.574;2023-08-21T09:32:08;97000.72;;;38.93
48003;BMP280;33768;48.578;11.574;2023-08-21T09:35:13;96996.34;;;38.73
48003;BMP280;33768;48.578;11.574;2023-08-21T09:38:19;96995.41;;;38.45
48003;BMP280;33768;48.578;11.574;2023-08-21T09:41:23;97001.66;;;38.23
48003;BMP280;33768;48.578;11.574;2023-08-21T09:44:28;96994.16;;;38.67
48003;BMP280;33768;48.578;11.574;2023-08-21T09:47:32;97002.25;;;39.08
48003;BMP280;33768;48.578;11.574;2023-08-21T09:50:37;96991.47;;;38.89
48003;BMP280;33768;48.578;11.574;2023-08-21T09:53:42;96991.50;;;38.99
48003;BMP280;33768;48.578;11.574;2023-08-21T09:56:47;96981.66;;;39.19
48003;BMP280;33768;48.578;11.574;2023-08-21T09:59:53;96985.28;;;39.40
48003;BMP280;33768;48.578;11.574;2023-08-21T10:03:03;96991.09;;;39.63
48003;BMP280;33768;48.578;11.574;2023-08-21T10:06:11;96978.22;;;39.60
48003;BMP280;33768;48.578;11.574;2023-08-21T10:09:15;96979.66;;;39.63
48003;BMP280;33768;48.578;11.574;2023-08-21T10:12:20;96966.84;;;39.90
48003;BMP280;33768;48.578;11.574;2023-08-21T10:15:27;96980.47;;;40.31
48003;BMP280;33768;48.578;11.574;2023-08-21T10:18:33;96965.44;;;39.97
48003;BMP280;33768;48.578;11.574;2023-08-21T10:21:37;96969.72;;;39.94
48003;BMP280;33768;48.578;11.574;2023-08-21T10:24:41;96968.97;;;39.91
48003;BMP280;33768;48.578;11.574;2023-08-21T10:27:46;96968.31;;;40.07
48003;BMP280;33768;48.578;11.574;2023-08-21T10:30:50;96960.44;;;40.19
48003;BMP280;33768;48.578;11.574;2023-08-21T10:33:56;96965.44;;;40.09
48003;BMP280;33768;48.578;11.574;2023-08-21T10:40:04;96961.16;;;40.31
48003;BMP280;33768;48.578;11.574;2023-08-21T10:43:42;96973.34;;;40.34
48003;BMP280;33768;48.578;11.574;2023-08-21T10:46:52;96967.56;;;40.57
48003;BMP280;33768;48.578;11.574;2023-08-21T10:50:03;96964.06;;;40.33
48003;BMP280;33768;48.578;11.574;2023-08-21T10:53:08;96960.41;;;40.64
48003;BMP280;33768;48.578;11.574;2023-08-21T10:56:12;96966.19;;;40.48
48003;BMP280;33768;48.578;11.574;2023-08-21T10:59:16;96957.56;;;40.66
48003;BMP280;33768;48.578;11.574;2023-08-21T11:02:21;96963.28;;;40.66
48003;BMP280;33768;48.578;11.574;2023-08-21T11:05:25;96962.59;;;40.42
48003;BMP280;33768;48.578;11.574;2023-08-21T11:08:29;96966.88;;;40.02
48003;BMP280;33768;48.578;11.574;2023-08-21T11:11:35;96960.44;;;40.27
48003;BMP280;33768;48.578;11.574;2023-08-21T11:14:39;96960.47;;;40.41
48003;BMP280;33768;48.578;11.574;2023-08-21T11:18:02;96966.88;;;40.08
48003;BMP280;33768;48.578;11.574;2023-08-21T11:21:08;96970.38;;;39.69
48003;BMP280;33768;48.578;11.574;2023-08-21T11:24:12;96956.84;;;39.91
48003;BMP280;33768;48.578;11.574;2023-08-21T11:27:18;96958.31;;;40.27
48003;BMP280;33768;48.578;11.574;2023-08-21T11:30:23;96958.31;;;40.31
48003;BMP280;33768;48.578;11.574;2023-08-21T11:33:28;96952.59;;;40.27
48003;BMP280;33768;48.578;11.574;2023-08-21T11:36:32;96959.03;;;40.28
48003;BMP280;33768;48.578;11.574;2023-08-21T11:39:42;96961.91;;;40.36
48003;BMP280;33768;48.578;11.574;2023-08-21T11:42:51;96953.28;;;40.63
48003;BMP280;33768;48.578;11.574;2023-08-21T11:45:55;96951.16;;;40.46
48003;BMP280;33768;48.578;11.574;2023-08-21T11:49:00;96951.88;;;39.97
48003;BMP280;33768;48.578;11.574;2023-08-21T11:52:04;96946.19;;;39.97
48003;BMP280;33768;48.578;11.574;2023-08-21T11:55:08;96943.31;;;40.07
48003;BMP280;33768;48.578;11.574;2023-08-21T11:58:17;96944.03;;;40.45
48003;BMP280;33768;48.578;11.574;2023-08-21T12:01:22;96939.00;;;40.44
48003;BMP280;33768;48.578;11.574;2023-08-21T12:04:26;96937.59;;;40.39
48003;BMP280;33768;48.578;11.574;2023-08-21T12:07:32;96937.56;;;40.60
48003;BMP280;33768;48.578;11.574;2023-08-21T12:10:36;96938.28;;;40.61
48003;BMP280;33768;48.578;11.574;2023-08-21T12:13:41;96940.41;;;40.70
48003;BMP280;33768;48.578;11.574;2023-08-21T12:16:45;96936.78;;;40.93
48003;BMP280;33768;48.578;11.574;2023-08-21T12:19:49;96935.34;;;40.90
48003;BMP280;33768;48.578;11.574;2023-08-21T12:22:53;96928.22;;;40.78
48003;BMP280;33768;48.578;11.574;2023-08-21T12:25:57;96929.00;;;40.41
48003;BMP280;33768;48.578;11.574;2023-08-21T12:29:01;96919.72;;;40.01
48003;BMP280;33768;48.578;11.574;2023-08-21T12:32:06;96928.28;;;39.85
48003;BMP280;33768;48.578;11.574;2023-08-21T12:35:10;96919.00;;;39.75
48003;BMP280;33768;48.578;11.574;2023-08-21T12:38:16;96920.41;;;39.70
48003;BMP280;33768;48.578;11.574;2023-08-21T12:41:19;96911.84;;;39.83
48003;BMP280;33768;48.578;11.574;2023-08-21T12:44:24;96911.06;;;39.46
48003;BMP280;33768;48.578;11.574;2023-08-21T12:47:28;96904.63;;;39.37
48003;BMP280;33768;48.578;11.574;2023-08-21T12:50:32;96913.88;;;39.34
48003;BMP280;33768;48.578;11.574;2023-08-21T12:53:36;96906.09;;;39.58
48003;BMP280;33768;48.578;11.574;2023-08-21T12:56:40;96905.41;;;39.89
48003;BMP280;33768;48.578;11.574;2023-08-21T12:59:44;96895.41;;;40.19
48003;BMP280;33768;48.578;11.574;2023-08-21T13:02:49;96895.44;;;40.08
48003;BMP280;33768;48.578;11.574;2023-08-21T13:05:52;96897.56;;;40.29
48003;BMP280;33768;48.578;11.574;2023-08-21T13:08:57;96898.25;;;40.49
48003;BMP280;33768;48.578;11.574;2023-08-21T13:12:01;96895.38;;;40.55
48003;BMP280;33768;48.578;11.574;2023-08-21T13:15:05;96889.66;;;40.59
48003;BMP280;33768;48.578;11.574;2023-08-21T13:18:11;96891.13;;;40.38
48003;BMP280;33768;48.578;11.574;2023-08-21T13:21:15;96889.69;;;40.19
48003;BMP280;33768;48.578;11.574;2023-08-21T13:24:19;96889.69;;;39.78
48003;BMP280;33768;48.578;11.574;2023-08-21T13:27:23;96890.41;;;39.77
48003;BMP280;33768;48.578;11.574;2023-08-21T13:30:28;96883.25;;;39.54
48003;BMP280;33768;48.578;11.574;2023-08-21T13:33:32;96883.97;;;39.54
48003;BMP280;33768;48.578;11.574;2023-08-21T13:36:37;96882.53;;;39.53
48003;BMP280;33768;48.578;11.574;2023-08-21T13:39:43;96882.50;;;39.44
48003;BMP280;33768;48.578;11.574;2023-08-21T13:42:47;96869.69;;;39.56
48003;BMP280;33768;48.578;11.574;2023-08-21T13:45:52;96873.97;;;39.63
48003;BMP280;33768;48.578;11.574;2023-08-21T13:48:56;96873.00;;;38.78
48003;BMP280;33768;48.578;11.574;2023-08-21T13:52:00;96856.44;;;38.47
48003;BMP280;33768;48.578;11.574;2023-08-21T13:55:05;96861.50;;;38.58
48003;BMP280;33768;48.578;11.574;2023-08-21T13:58:10;96853.63;;;38.51
48003;BMP280;33768;48.578;11.574;2023-08-21T14:01:14;96855.69;;;38.39
48003;BMP280;33768;48.578;11.574;2023-08-21T14:04:18;96853.75;;;38.77
48003;BMP280;33768;48.578;11.574;2023-08-21T14:07:23;96846.72;;;38.99
48003;BMP280;33768;48.578;11.574;2023-08-21T14:10:27;96856.72;;;39.06
48003;BMP280;33768;48.578;11.574;2023-08-21T14:13:31;96846.72;;;39.09
48003;BMP280;33768;48.578;11.574;2023-08-21T14:16:35;96841.72;;;39.02
48003;BMP280;33768;48.578;11.574;2023-08-21T14:19:39;96848.13;;;39.00
48003;BMP280;33768;48.578;11.574;2023-08-21T14:22:43;96835.25;;;38.93
48003;BMP280;33768;48.578;11.574;2023-08-21T14:25:47;96837.47;;;39.13
48003;BMP280;33768;48.578;11.574;2023-08-21T14:28:51;96833.22;;;39.17
48003;BMP280;33768;48.578;11.574;2023-08-21T14:31:55;96834.66;;;39.15
48003;BMP280;33768;48.578;11.574;2023-08-21T14:35:01;96834.56;;;38.89
48003;BMP280;33768;48.578;11.574;2023-08-21T14:38:05;96836.44;;;38.33
48003;BMP280;33768;48.578;11.574;2023-08-21T14:41:10;96827.66;;;38.02
48003;BMP280;33768;48.578;11.574;2023-08-21T14:44:14;96837.50;;;37.83
48003;BMP280;33768;48.578;11.574;2023-08-21T14:47:19;96829.78;;;38.01
48003;BMP280;33768;48.578;11.574;2023-08-21T14:50:23;96834.75;;;37.99
48003;BMP280;33768;48.578;11.574;2023-08-21T14:53:28;96834.72;;;37.95
48003;BMP280;33768;48.578;11.574;2023-08-21T14:56:32;96839.56;;;37.02
48003;BMP280;33768;48.578;11.574;2023-08-21T14:59:37;96843.56;;;36.82
48003;BMP280;33768;48.578;11.574;2023-08-21T15:02:41;96836.00;;;37.04
48003;BMP280;33768;48.578;11.574;2023-08-21T15:05:45;96837.34;;;36.97
48003;BMP280;33768;48.578;11.574;2023-08-21T15:08:49;96832.97;;;36.31
48003;BMP280;33768;48.578;11.574;2023-08-21T15:11:53;96836.56;;;36.36
48003;BMP280;33768;48.578;11.574;2023-08-21T15:14:57;96835.09;;;36.33
48003;BMP280;33768;48.578;11.574;2023-08-21T15:18:02;96837.69;;;35.70
48003;BMP280;33768;48.578;11.574;2023-08-21T15:21:06;96836.81;;;34.84
48003;BMP280;33768;48.578;11.574;2023-08-21T15:24:10;96841.53;;;34.39
48003;BMP280;33768;48.578;11.574;2023-08-21T15:27:14;96835.16;;;34.38
48003;BMP280;33768;48.578;11.574;2023-08-21T15:30:20;96833.53;;;34.30
48003;BMP280;33768;48.578;11.574;2023-08-21T15:33:24;96832.38;;;34.40
48003;BMP280;33768;48.578;11.574;2023-08-21T15:36:28;96831.66;;;34.40
48003;BMP280;33768;48.578;11.574;2023-08-21T15:39:32;96830.63;;;33.95
48003;BMP280;33768;48.578;11.574;2023-08-21T15:42:37;96829.00;;;33.57
48003;BMP280;33768;48.578;11.574;2023-08-21T15:45:41;96826.00;;;33.24
48003;BMP280;33768;48.578;11.574;2023-08-21T15:48:45;96839.94;;;32.89
48003;BMP280;33768;48.578;11.574;2023-08-21T15:51:49;96834.81;;;32.83
48003;BMP280;33768;48.578;11.574;2023-08-21T15:54:53;96824.56;;;32.96
48003;BMP280;33768;48.578;11.574;2023-08-21T15:57:58;96824.56;;;32.96
48003;BMP280;33768;48.578;11.574;2023-08-21T16:01:02;96814.53;;;32.91
48003;BMP280;33768;48.578;11.574;2023-08-21T16:04:07;96819.09;;;32.77
48003;BMP280;33768;48.578;11.574;2023-08-21T16:07:11;96819.03;;;32.49
48003;BMP280;33768;48.578;11.574;2023-08-21T16:10:15;96813.72;;;32.15
48003;BMP280;33768;48.578;11.574;2023-08-21T16:13:19;96815.41;;;31.78
48003;BMP280;33768;48.578;11.574;2023-08-21T16:16:23;96819.50;;;31.51
48003;BMP280;33768;48.578;11.574;2023-08-21T16:19:28;96815.81;;;31.47
48003;BMP280;33768;48.578;11.574;2023-08-21T16:22:33;96816.66;;;31.51
48003;BMP280;33768;48.578;11.574;2023-08-21T16:25:38;96814.41;;;31.69
48003;BMP280;33768;48.578;11.574;2023-08-21T16:28:42;96818.38;;;31.82
48003;BMP280;33768;48.578;11.574;2023-08-21T16:31:46;96810.75;;;31.86
48003;BMP280;33768;48.578;11.574;2023-08-21T16:34:51;96810.03;;;31.85
48003;BMP280;33768;48.578;11.574;2023-08-21T16:37:55;96805.16;;;31.88
48003;BMP280;33768;48.578;11.574;2023-08-21T16:41:00;96806.59;;;31.89
48003;BMP280;33768;48.578;11.574;2023-08-21T16:44:04;96795.78;;;31.82
48003;BMP280;33768;48.578;11.574;2023-08-21T16:47:09;96799.59;;;31.69
48003;BMP280;33768;48.578;11.574;2023-08-21T16:50:13;96792.06;;;31.54
48003;BMP280;33768;48.578;11.574;2023-08-21T16:53:18;96798.00;;;31.41
48003;BMP280;33768;48.578;11.574;2023-08-21T16:56:22;96796.81;;;31.26
48003;BMP280;33768;48.578;11.574;2023-08-21T16:59:26;96804.66;;;31.09
48003;BMP280;33768;48.578;11.574;2023-08-21T17:02:30;96801.38;;;30.95
48003;BMP280;33768;48.578;11.574;2023-08-21T17:05:35;96808.03;;;30.84
48003;BMP280;33768;48.578;11.574;2023-08-21T17:08:39;96800.44;;;30.69
48003;BMP280;33768;48.578;11.574;2023-08-21T17:11:44;96809.91;;;30.58
48003;BMP280;33768;48.578;11.574;2023-08-21T17:14:48;96815.84;;;30.47
48003;BMP280;33768;48.578;11.574;2023-08-21T17:17:52;96806.88;;;30.33
48003;BMP280;33768;48.578;11.574;2023-08-21T17:20:56;96807.00;;;30.18
48003;BMP280;33768;48.578;11.574;2023-08-21T17:24:00;96810.00;;;30.05
48003;BMP280;33768;48.578;11.574;2023-08-21T17:27:04;96809.53;;;29.93
48003;BMP280;33768;48.578;11.574;2023-08-21T17:30:09;96804.09;;;29.80
48003;BMP280;33768;48.578;11.574;2023-08-21T17:33:13;96810.44;;;29.63
48003;BMP280;33768;48.578;11.574;2023-08-21T17:36:17;96816.06;;;29.46